createdAt,value
2018-11-21T00:00:18.050Z,11.98
2018-11-21T00:02:47.412Z,12.04
2018-11-21T00:05:16.546Z,12.41
2018-11-21T00:07:45.661Z,12.13
2018-11-21T00:10:14.656Z,11.73
2018-11-21T00:12:54.756Z,11.69
2018-11-21T00:15:23.806Z,12.06
2018-11-21T00:17:52.801Z,11.86
2018-11-21T00:20:22.004Z,12.11
2018-11-21T00:22:51.006Z,12.02
2018-11-21T00:25:20.092Z,11.94
2018-11-21T00:27:49.171Z,11.88
2018-11-21T00:30:18.177Z,11.64
2018-11-21T00:32:47.329Z,12.12
2018-11-21T00:35:16.467Z,11.92
2018-11-21T00:37:45.471Z,11.70
2018-11-21T00:40:15.520Z,11.92
2018-11-21T00:42:46.960Z,12.04
2018-11-21T00:45:13.696Z,11.89
2018-11-21T00:47:42.675Z,12.07
2018-11-21T00:50:12.119Z,11.90
2018-11-21T00:52:41.227Z,11.92
2018-11-21T00:55:10.260Z,11.97
2018-11-21T00:57:39.266Z,12.42
2018-11-21T01:00:10.525Z,12.30
2018-11-21T01:02:39.603Z,12.22
2018-11-21T01:05:08.742Z,11.90
2018-11-21T01:07:37.831Z,11.99
2018-11-21T01:10:06.687Z,12.07
2018-11-21T01:12:35.710Z,12.16
2018-11-21T01:15:04.676Z,12.04
2018-11-21T01:17:33.861Z,12.06
2018-11-21T01:20:02.922Z,12.16
2018-11-21T01:22:32.024Z,12.03
2018-11-21T01:25:01.047Z,12.02
2018-11-21T01:27:29.916Z,12.07
2018-11-21T01:29:58.830Z,11.99
2018-11-21T01:32:27.877Z,11.83
2018-11-21T01:34:56.928Z,11.91
2018-11-21T01:37:27.986Z,11.95
2018-11-21T01:39:55.128Z,11.69
2018-11-21T01:42:24.219Z,11.86
2018-11-21T01:44:53.322Z,11.74
2018-11-21T01:47:22.313Z,11.82
2018-11-21T01:49:51.419Z,11.75
2018-11-21T01:52:20.543Z,11.80
2018-11-21T01:54:49.421Z,11.75
2018-11-21T01:57:18.319Z,11.64
2018-11-21T01:59:47.246Z,11.80
2018-11-21T02:02:16.167Z,11.94
2018-11-21T02:04:45.271Z,11.82
2018-11-21T02:07:14.320Z,11.80
2018-11-21T02:09:43.520Z,11.89
2018-11-21T02:12:12.535Z,11.93
2018-11-21T02:14:41.598Z,11.89
2018-11-21T02:17:10.784Z,11.85
2018-11-21T02:19:39.970Z,11.82
2018-11-21T02:22:09.237Z,11.89
2018-11-21T02:24:38.104Z,11.92
2018-11-21T02:27:07.129Z,11.80
2018-11-21T02:29:36.288Z,11.78
2018-11-21T02:32:05.408Z,11.77
2018-11-21T02:34:34.319Z,11.62
2018-11-21T02:37:03.412Z,11.68
2018-11-21T02:39:32.404Z,11.77
2018-11-21T02:42:01.426Z,11.82
2018-11-21T02:44:30.564Z,11.79
2018-11-21T02:46:59.582Z,11.80
2018-11-21T02:49:28.598Z,11.75
2018-11-21T02:51:57.739Z,11.80
2018-11-21T02:54:26.676Z,11.75
2018-11-21T02:57:21.656Z,11.75
2018-11-21T02:59:52.361Z,11.79
2018-11-21T03:02:21.423Z,11.70
2018-11-21T03:04:50.510Z,11.77
2018-11-21T03:07:19.718Z,11.79
2018-11-21T03:09:48.740Z,11.66
2018-11-21T03:12:17.876Z,11.70
2018-11-21T03:14:46.786Z,11.67
2018-11-21T03:17:15.925Z,11.74
2018-11-21T03:19:45.076Z,11.79
2018-11-21T03:22:14.179Z,11.72
2018-11-21T03:24:43.264Z,11.64
2018-11-21T03:27:12.264Z,11.72
2018-11-21T03:29:41.305Z,11.68
2018-11-21T03:32:10.374Z,11.69
2018-11-21T03:34:39.450Z,11.66
2018-11-21T03:37:08.602Z,11.71
2018-11-21T03:39:37.400Z,11.80
2018-11-21T03:42:06.939Z,11.72
2018-11-21T03:44:35.831Z,11.72
2018-11-21T03:47:04.921Z,11.56
2018-11-21T03:49:34.108Z,11.59
2018-11-21T03:52:03.069Z,11.51
2018-11-21T03:54:32.116Z,11.62
2018-11-21T03:57:01.274Z,11.71
2018-11-21T03:59:30.151Z,11.67
2018-11-21T04:01:58.970Z,11.54
2018-11-21T04:04:27.835Z,11.63
2018-11-21T04:06:56.692Z,11.56
2018-11-21T04:09:25.636Z,11.61
2018-11-21T04:11:54.613Z,11.62
2018-11-21T04:14:23.465Z,11.60
2018-11-21T04:16:52.316Z,11.64
2018-11-21T04:19:21.213Z,11.58
2018-11-21T04:21:50.054Z,11.63
2018-11-21T04:24:18.910Z,11.56
2018-11-21T04:26:47.771Z,11.45
2018-11-21T04:29:16.635Z,11.49
2018-11-21T04:31:45.493Z,11.59
2018-11-21T04:34:14.420Z,11.51
2018-11-21T04:36:43.296Z,11.65
2018-11-21T04:39:12.820Z,11.75
2018-11-21T04:41:41.729Z,11.73
2018-11-21T04:44:10.773Z,11.63
2018-11-21T04:46:39.660Z,11.49
2018-11-21T04:49:08.596Z,11.54
2018-11-21T04:51:37.454Z,11.52
2018-11-21T04:54:06.692Z,11.61
2018-11-21T04:56:35.818Z,11.56
2018-11-21T04:59:04.932Z,11.61
2018-11-21T05:01:33.804Z,11.58
2018-11-21T05:04:02.769Z,11.65
2018-11-21T05:06:31.805Z,11.64
2018-11-21T05:09:00.921Z,11.62
2018-11-21T05:11:30.092Z,11.71
2018-11-21T05:13:59.100Z,11.70
2018-11-21T05:16:28.135Z,11.64
2018-11-21T05:18:56.959Z,11.68
2018-11-21T05:21:25.816Z,11.79
2018-11-21T05:23:54.748Z,11.73
2018-11-21T05:26:23.616Z,11.72
2018-11-21T05:28:52.645Z,11.70
2018-11-21T05:31:21.649Z,11.81
2018-11-21T05:33:50.505Z,11.72
2018-11-21T05:36:19.384Z,11.75
2018-11-21T05:38:48.302Z,11.70
2018-11-21T05:41:17.158Z,11.78
2018-11-21T05:43:45.988Z,11.71
2018-11-21T05:46:15.122Z,11.69
2018-11-21T05:48:43.963Z,11.80
2018-11-21T05:51:12.900Z,11.70
2018-11-21T05:53:41.762Z,11.84
2018-11-21T05:56:10.627Z,11.82
2018-11-21T05:58:39.609Z,11.83
2018-11-21T06:01:08.543Z,11.79
2018-11-21T06:03:37.422Z,11.80
2018-11-21T06:06:09.881Z,11.81
2018-11-21T06:08:35.560Z,11.83
2018-11-21T06:11:04.555Z,11.85
2018-11-21T06:13:33.536Z,11.83
2018-11-21T06:16:02.397Z,11.91
2018-11-21T06:18:31.321Z,11.87
2018-11-21T06:21:00.248Z,11.82
2018-11-21T06:23:29.085Z,11.83
2018-11-21T06:25:58.083Z,11.78
2018-11-21T06:28:26.948Z,11.83
2018-11-21T06:30:56.017Z,11.94
2018-11-21T06:33:25.051Z,11.88
2018-11-21T06:35:54.144Z,11.83
2018-11-21T06:38:23.284Z,11.90
2018-11-21T06:40:52.342Z,11.96
2018-11-21T06:43:21.313Z,11.98
2018-11-21T06:45:50.203Z,11.91
2018-11-21T06:48:19.213Z,11.82
2018-11-21T06:50:48.255Z,11.86
2018-11-21T06:53:17.288Z,11.83
2018-11-21T06:55:46.195Z,11.82
2018-11-21T06:58:15.344Z,11.74
2018-11-21T07:00:44.383Z,11.75
2018-11-21T07:03:13.665Z,11.76
2018-11-21T07:05:42.739Z,11.77
2018-11-21T07:08:11.771Z,11.65
2018-11-21T07:10:40.776Z,11.68
2018-11-21T07:13:11.246Z,11.81
2018-11-21T07:15:38.963Z,11.81
2018-11-21T07:18:08.046Z,11.80
2018-11-21T07:20:37.089Z,11.95
2018-11-21T07:23:06.459Z,11.87
2018-11-21T07:25:35.538Z,11.92
2018-11-21T07:28:04.662Z,11.90
2018-11-21T07:30:33.740Z,12.03
2018-11-21T07:33:02.810Z,12.09
2018-11-21T07:35:31.859Z,12.08
2018-11-21T07:38:01.017Z,12.09
2018-11-21T07:40:30.287Z,11.94
2018-11-21T07:42:59.327Z,11.94
2018-11-21T07:45:28.415Z,12.11
2018-11-21T07:47:57.409Z,12.12
2018-11-21T07:50:26.410Z,12.05
2018-11-21T07:52:55.517Z,12.02
2018-11-21T07:55:24.690Z,12.10
2018-11-21T07:57:55.323Z,12.11
2018-11-21T08:00:55.375Z,12.04
2018-11-21T08:03:25.606Z,11.95
2018-11-21T08:06:13.717Z,12.04
2018-11-21T08:08:56.583Z,12.16
2018-11-21T08:11:44.565Z,12.16
2018-11-21T08:14:32.527Z,12.10
2018-11-21T08:17:18.995Z,12.23
2018-11-21T08:20:05.488Z,12.26
2018-11-21T08:22:53.471Z,12.32
2018-11-21T08:25:44.170Z,12.14
2018-11-21T08:28:21.208Z,12.33
2018-11-21T08:30:51.415Z,12.19
2018-11-21T08:33:20.633Z,12.20
2018-11-21T08:35:49.669Z,12.28
2018-11-21T08:38:18.766Z,12.37
2018-11-21T08:40:47.917Z,12.39
2018-11-21T08:43:16.994Z,12.44
2018-11-21T08:45:46.284Z,12.40
2018-11-21T08:48:16.053Z,12.35
2018-11-21T08:50:45.043Z,12.40
2018-11-21T08:53:13.947Z,12.31
2018-11-21T08:55:43.112Z,12.33
2018-11-21T08:58:12.137Z,12.29
2018-11-21T09:00:41.127Z,12.29
2018-11-21T09:03:10.180Z,12.32
2018-11-21T09:05:39.224Z,12.31
2018-11-21T09:08:08.662Z,12.23
2018-11-21T09:10:37.868Z,12.39
2018-11-21T09:13:06.844Z,12.41
2018-11-21T09:15:35.906Z,12.34
2018-11-21T09:18:04.943Z,12.30
2018-11-21T09:20:34.016Z,12.33
2018-11-21T09:23:03.014Z,12.31
2018-11-21T09:25:32.159Z,12.35
2018-11-21T09:28:01.100Z,12.15
2018-11-21T09:30:30.193Z,12.32
2018-11-21T09:32:59.924Z,12.38
2018-11-21T09:35:28.983Z,12.31
2018-11-21T09:37:57.989Z,12.31
2018-11-21T09:40:27.080Z,12.15
2018-11-21T09:42:56.821Z,12.23
2018-11-21T09:45:26.259Z,12.28
2018-11-21T09:47:55.297Z,12.25
2018-11-21T09:50:26.024Z,12.19
2018-11-21T09:52:55.084Z,12.19
2018-11-21T09:55:24.018Z,12.27
2018-11-21T09:57:53.056Z,12.27
2018-11-21T10:00:58.403Z,12.24
2018-11-21T10:03:29.129Z,12.18
2018-11-21T10:06:04.373Z,12.05
2018-11-21T10:08:39.821Z,11.95
2018-11-21T10:11:09.688Z,12.01
2018-11-21T10:13:38.777Z,11.96
2018-11-21T10:16:08.441Z,11.92
2018-11-21T10:18:38.554Z,11.97
2018-11-21T10:21:09.826Z,11.97
2018-11-21T10:23:38.799Z,12.06
2018-11-21T10:26:08.079Z,12.06
2018-11-21T10:28:37.289Z,12.04
2018-11-21T10:31:06.508Z,12.00
2018-11-21T10:33:35.553Z,11.98
2018-11-21T10:36:04.808Z,11.98
2018-11-21T10:38:33.911Z,11.99
2018-11-21T10:41:02.932Z,11.93
2018-11-21T10:43:32.795Z,11.91
2018-11-21T10:46:01.905Z,11.98
2018-11-21T10:48:30.948Z,11.90
2018-11-21T10:51:00.075Z,12.01
2018-11-21T10:53:29.115Z,11.94
2018-11-21T10:55:58.119Z,11.89
2018-11-21T10:58:27.126Z,12.01
2018-11-21T11:01:13.688Z,11.92
2018-11-21T11:04:01.572Z,12.05
2018-11-21T11:06:49.527Z,11.98
2018-11-21T11:09:36.320Z,11.94
2018-11-21T11:12:24.284Z,12.05
2018-11-21T11:15:10.743Z,11.80
2018-11-21T11:18:04.433Z,11.89
2018-11-21T11:20:58.489Z,11.93
2018-11-21T11:23:44.917Z,11.90
2018-11-21T11:26:35.654Z,12.02
2018-11-21T11:29:32.158Z,11.93
2018-11-21T11:32:18.760Z,11.82
2018-11-21T11:35:05.423Z,11.90
2018-11-21T11:37:51.994Z,11.82
2018-11-21T11:40:55.255Z,11.82
2018-11-21T11:43:41.835Z,11.73
2018-11-21T11:46:28.720Z,11.82
2018-11-21T11:49:13.867Z,11.80
2018-11-21T11:52:10.357Z,11.82
2018-11-21T11:54:50.065Z,11.73
2018-11-21T11:57:43.948Z,11.79
2018-11-21T12:00:30.561Z,11.70
2018-11-21T12:03:17.260Z,11.74
2018-11-21T12:06:03.987Z,11.84
2018-11-21T12:08:50.788Z,11.83
2018-11-21T12:11:37.530Z,11.93
2018-11-21T12:14:24.520Z,11.85
2018-11-21T12:17:11.425Z,11.94
2018-11-21T12:19:53.370Z,12.00
2018-11-21T12:22:57.221Z,11.94
2018-11-21T12:25:52.950Z,11.84
2018-11-21T12:28:44.183Z,11.87
2018-11-21T12:31:30.783Z,12.09
2018-11-21T12:34:17.687Z,12.10
2018-11-21T12:37:05.601Z,11.97
2018-11-21T12:39:53.972Z,12.10
2018-11-21T12:43:06.082Z,11.98
2018-11-21T12:45:59.192Z,12.05
2018-11-21T12:48:45.757Z,12.13
2018-11-21T12:51:47.376Z,12.16
2018-11-21T12:54:30.988Z,11.97
2018-11-21T12:57:30.728Z,12.17
2018-11-21T13:00:42.002Z,12.02
2018-11-21T13:03:28.630Z,11.88
2018-11-21T13:06:10.259Z,12.07
2018-11-21T13:09:58.939Z,12.05
2018-11-21T13:11:38.643Z,12.07
2018-11-21T13:14:33.037Z,12.00
2018-11-21T13:17:23.928Z,12.00
2018-11-21T13:20:21.592Z,11.97
2018-11-21T13:23:12.339Z,11.96
2018-11-21T13:25:49.633Z,11.94
2018-11-21T13:28:52.784Z,11.94
2018-11-21T13:31:56.392Z,11.94
2018-11-21T13:34:43.178Z,11.82
2018-11-21T13:37:33.998Z,11.68
2018-11-21T13:40:20.719Z,11.88
2018-11-21T13:43:07.419Z,11.82
2018-11-21T13:45:55.374Z,11.94
2018-11-21T13:48:40.870Z,11.94
2018-11-21T13:51:29.092Z,12.02
2018-11-21T13:54:16.658Z,12.07
2018-11-21T13:56:46.650Z,11.92
2018-11-21T13:59:15.597Z,11.83
2018-11-21T14:01:44.992Z,11.88
2018-11-21T14:04:13.998Z,11.81
2018-11-21T14:06:43.103Z,11.80
2018-11-21T14:09:13.754Z,11.81
2018-11-21T14:11:42.911Z,11.64
2018-11-21T14:14:11.922Z,11.77
2018-11-21T14:16:41.235Z,11.65
2018-11-21T14:19:10.330Z,11.62
2018-11-21T14:21:39.418Z,11.52
2018-11-21T14:24:08.574Z,11.75
2018-11-21T14:26:37.770Z,11.72
2018-11-21T14:29:06.879Z,11.68
2018-11-21T14:31:35.959Z,11.75
2018-11-21T14:34:04.999Z,11.72
2018-11-21T14:36:34.047Z,11.81
2018-11-21T14:39:03.128Z,11.79
2018-11-21T14:41:32.245Z,11.79
2018-11-21T14:44:01.235Z,11.90
2018-11-21T14:46:30.422Z,11.80
2018-11-21T14:48:59.707Z,11.92
2018-11-21T14:51:28.775Z,11.96
2018-11-21T14:53:57.968Z,11.95
2018-11-21T14:56:29.374Z,11.82
2018-11-21T14:58:56.060Z,11.66
2018-11-21T15:01:25.209Z,11.72
2018-11-21T15:03:54.177Z,11.72
2018-11-21T15:06:23.211Z,11.68
2018-11-21T15:08:52.244Z,11.78
2018-11-21T15:11:21.399Z,11.74
2018-11-21T15:13:50.442Z,11.69
2018-11-21T15:16:19.753Z,11.67
2018-11-21T15:18:48.892Z,11.58
2018-11-21T15:21:18.324Z,11.56
2018-11-21T15:23:47.326Z,11.58
2018-11-21T15:26:16.383Z,11.65
2018-11-21T15:28:45.497Z,11.56
2018-11-21T15:31:14.563Z,11.42
2018-11-21T15:33:43.609Z,11.40
2018-11-21T15:36:12.824Z,11.41
2018-11-21T15:38:41.958Z,11.46
2018-11-21T15:41:11.057Z,11.42
2018-11-21T15:43:39.991Z,11.40
2018-11-21T15:46:09.546Z,11.49
2018-11-21T15:48:38.671Z,11.44
2018-11-21T15:51:07.685Z,11.45
2018-11-21T15:53:36.737Z,11.43
2018-11-21T15:56:05.935Z,11.38
2018-11-21T15:58:35.044Z,11.42
2018-11-21T16:01:04.130Z,11.47
2018-11-21T16:03:33.116Z,11.45
2018-11-21T16:06:02.263Z,11.40
2018-11-21T16:08:31.330Z,11.44
2018-11-21T16:11:00.411Z,11.39
2018-11-21T16:13:29.463Z,11.45
2018-11-21T16:15:58.762Z,11.41
2018-11-21T16:18:28.246Z,11.40
2018-11-21T16:20:57.162Z,11.41
2018-11-21T16:23:26.318Z,11.54
2018-11-21T16:25:55.346Z,11.55
2018-11-21T16:28:24.438Z,11.51
2018-11-21T16:30:53.660Z,11.48
2018-11-21T16:33:22.725Z,11.53
2018-11-21T16:35:51.900Z,11.44
2018-11-21T16:38:20.978Z,11.43
2018-11-21T16:40:50.086Z,11.43
2018-11-21T16:43:19.110Z,11.57
2018-11-21T16:45:50.445Z,11.39
